Terminal Aerodrome Forecast
Issued by NWS Chicago, IL

Home | Current Version | Previous Version | Graphics & Text | Print | Product List | Glossary On
Versions: 1 2 3 4 5 6 7 8 9 10 11 12 13 14 15 16 17 18 19 20 21 22 23 24
696
FTUS43 KLOT 112336
TAFRFD
TAF
KRFD 112336Z 1200/1224 33010KT P6SM OVC025
     FM120300 33018G28KT P6SM -SHSN OVC025
     FM121300 33014G22KT P6SM SCT035
     FM122200 31008KT P6SM OVC100=

USA.gov is the U.S. government's official web portal to all federal, state and local government web resources and services.